sensor_id;sensor_type;location;lat;lon;timestamp;P1;durP1;ratioP1;P2;durP2;ratioP2
15557;SDS011;7880;50.110;9.372;2024-01-30T00:03:55;6.799999999999998;;;4.076923076923078;;
15557;SDS011;7880;50.110;9.372;2024-01-30T00:09:09;6.315384615384616;;;3.6384615384615397;;
15557;SDS011;7880;50.110;9.372;2024-01-30T00:14:14;6.9615384615384635;;;4.700000000000001;;
15557;SDS011;7880;50.110;9.372;2024-01-30T00:19:11;7.7230769230769205;;;4.061538461538462;;
15557;SDS011;7880;50.110;9.372;2024-01-30T00:24:17;5.938461538461538;;;3.7999999999999994;;
15557;SDS011;7880;50.110;9.372;2024-01-30T00:29:22;7.66153846153846;;;4.13846153846154;;
15557;SDS011;7880;50.110;9.372;2024-01-30T00:34:26;6.4;;;3.838461538461538;;
15557;SDS011;7880;50.110;9.372;2024-01-30T00:39:23;4.8999999999999995;;;3.6384615384615397;;
15557;SDS011;7880;50.110;9.372;2024-01-30T00:44:28;5.638461538461541;;;3.9384615384615382;;
15557;SDS011;7880;50.110;9.372;2024-01-30T00:49:28;5.6230769230769235;;;3.7000000000000006;;
15557;SDS011;7880;50.110;9.372;2024-01-30T00:54:35;9.423076923076923;;;3.9384615384615382;;
15557;SDS011;7880;50.110;9.372;2024-01-30T00:59:35;6.799999999999998;;;4.076923076923078;;
15557;SDS011;7880;50.110;9.372;2024-01-30T01:04:45;5.8769230769230765;;;4.438461538461538;;
15557;SDS011;7880;50.110;9.372;2024-01-30T01:09:43;7.792307692307694;;;4.16923076923077;;
15557;SDS011;7880;50.110;9.372;2024-01-30T01:14:43;6.753846153846153;;;3.7999999999999994;;
15557;SDS011;7880;50.110;9.372;2024-01-30T01:19:47;5.6;;;4.1000000000000005;;
15557;SDS011;7880;50.110;9.372;2024-01-30T01:24:55;4.515384615384616;;;3.2384615384615367;;
15557;SDS011;7880;50.110;9.372;2024-01-30T01:29:59;5.784615384615383;;;3.661538461538462;;
15557;SDS011;7880;50.110;9.372;2024-01-30T01:35:11;10.684615384615382;;;4.299999999999999;;
15557;SDS011;7880;50.110;9.372;2024-01-30T01:40:04;6.700000000000002;;;4.0;;
15557;SDS011;7880;50.110;9.372;2024-01-30T01:45:06;5.561538461538462;;;3.5;;
15557;SDS011;7880;50.110;9.372;2024-01-30T01:50:10;8.446153846153846;;;4.423076923076922;;
15557;SDS011;7880;50.110;9.372;2024-01-30T01:55:16;7.915384615384612;;;3.6769230769230763;;
15557;SDS011;7880;50.110;9.372;2024-01-30T02:00:19;6.1230769230769235;;;4.200000000000001;;
15557;SDS011;7880;50.110;9.372;2024-01-30T02:05:25;6.223076923076921;;;3.7000000000000006;;
15557;SDS011;7880;50.110;9.372;2024-01-30T02:10:27;6.561538461538462;;;3.9384615384615382;;
15557;SDS011;7880;50.110;9.372;2024-01-30T02:15:30;5.700000000000002;;;3.7384615384615367;;
15557;SDS011;7880;50.110;9.372;2024-01-30T02:20:35;5.076923076923078;;;3.2384615384615367;;
15557;SDS011;7880;50.110;9.372;2024-01-30T02:25:39;5.315384615384616;;;3.7999999999999994;;
15557;SDS011;7880;50.110;9.372;2024-01-30T02:30:43;6.323076923076922;;;4.3999999999999995;;
15557;SDS011;7880;50.110;9.372;2024-01-30T02:35:48;6.799999999999998;;;3.6384615384615397;;
15557;SDS011;7880;50.110;9.372;2024-01-30T02:40:49;4.823076923076924;;;3.7615384615384633;;
15557;SDS011;7880;50.110;9.372;2024-01-30T02:45:59;7.16153846153846;;;3.838461538461538;;
15557;SDS011;7880;50.110;9.372;2024-01-30T02:50:59;6.015384615384615;;;3.576923076923078;;
15557;SDS011;7880;50.110;9.372;2024-01-30T02:56:06;4.976923076923076;;;3.600000000000001;;
15557;SDS011;7880;50.110;9.372;2024-01-30T03:01:03;7.2230769230769205;;;3.600000000000001;;
15557;SDS011;7880;50.110;9.372;2024-01-30T03:04:40;7.153846153846156;;;4.299999999999999;;
15557;SDS011;7880;50.110;9.372;2024-01-30T03:09:46;9.284615384615384;;;3.899999999999999;;
15557;SDS011;7880;50.110;9.372;2024-01-30T03:14:44;9.415384615384612;;;3.838461538461538;;
15557;SDS011;7880;50.110;9.372;2024-01-30T03:19:48;7.623076923076921;;;3.899999999999999;;
15557;SDS011;7880;50.110;9.372;2024-01-30T03:24:52;6.6230769230769235;;;3.7000000000000006;;
15557;SDS011;7880;50.110;9.372;2024-01-30T03:29:55;6.053846153846152;;;3.7999999999999994;;
15557;SDS011;7880;50.110;9.372;2024-01-30T03:35:16;7.83846153846154;;;3.7999999999999994;;
15557;SDS011;7880;50.110;9.372;2024-01-30T03:40:07;5.6923076923076925;;;3.976923076923077;;
15557;SDS011;7880;50.110;9.372;2024-01-30T03:45:08;7.999999999999999;;;3.9384615384615382;;
15557;SDS011;7880;50.110;9.372;2024-01-30T03:50:14;5.007692307692308;;;3.9538461538461536;;
15557;SDS011;7880;50.110;9.372;2024-01-30T03:55:25;5.776923076923079;;;4.3999999999999995;;
15557;SDS011;7880;50.110;9.372;2024-01-30T04:00:19;6.3769230769230765;;;3.4384615384615382;;
15557;SDS011;7880;50.110;9.372;2024-01-30T04:05:24;5.676923076923076;;;3.899999999999999;;
15557;SDS011;7880;50.110;9.372;2024-01-30T04:10:32;8.046153846153846;;;3.899999999999999;;
15557;SDS011;7880;50.110;9.372;2024-01-30T04:15:30;4.938461538461538;;;3.576923076923078;;
15557;SDS011;7880;50.110;9.372;2024-01-30T04:20:38;8.061538461538461;;;4.238461538461538;;
15557;SDS011;7880;50.110;9.372;2024-01-30T04:25:43;7.415384615384612;;;4.1000000000000005;;
15557;SDS011;7880;50.110;9.372;2024-01-30T04:30:44;7.238461538461538;;;4.13846153846154;;
15557;SDS011;7880;50.110;9.372;2024-01-30T04:35:48;6.269230769230768;;;3.899999999999999;;
15557;SDS011;7880;50.110;9.372;2024-01-30T04:40:54;7.9615384615384635;;;4.3999999999999995;;
15557;SDS011;7880;50.110;9.372;2024-01-30T04:45:55;6.1230769230769235;;;4.5;;
15557;SDS011;7880;50.110;9.372;2024-01-30T04:51:03;5.823076923076924;;;4.023076923076923;;
15557;SDS011;7880;50.110;9.372;2024-01-30T04:56:05;10.038461538461537;;;4.261538461538462;;
15557;SDS011;7880;50.110;9.372;2024-01-30T05:01:08;6.815384615384615;;;3.7999999999999994;;
15557;SDS011;7880;50.110;9.372;2024-01-30T05:06:11;6.638461538461541;;;4.738461538461538;;
15557;SDS011;7880;50.110;9.372;2024-01-30T05:11:16;10.423076923076923;;;4.700000000000001;;
15557;SDS011;7880;50.110;9.372;2024-01-30T05:16:20;8.623076923076924;;;5.5;;
15557;SDS011;7880;50.110;9.372;2024-01-30T05:21:23;6.438461538461538;;;4.799999999999999;;
15557;SDS011;7880;50.110;9.372;2024-01-30T05:26:27;6.9769230769230735;;;4.700000000000001;;
15557;SDS011;7880;50.110;9.372;2024-01-30T05:31:35;7.66153846153846;;;4.530769230769231;;
15557;SDS011;7880;50.110;9.372;2024-01-30T05:36:36;8.961538461538463;;;4.576923076923078;;
15557;SDS011;7880;50.110;9.372;2024-01-30T05:41:39;6.700000000000002;;;4.638461538461541;;
15557;SDS011;7880;50.110;9.372;2024-01-30T05:46:42;10.83076923076923;;;5.476923076923075;;
15557;SDS011;7880;50.110;9.372;2024-01-30T05:52:06;6.423076923076922;;;4.799999999999999;;
15557;SDS011;7880;50.110;9.372;2024-01-30T05:56:54;6.953846153846154;;;5.4;;
15557;SDS011;7880;50.110;9.372;2024-01-30T06:02:22;8.846153846153845;;;5.3076923076923075;;
15557;SDS011;7880;50.110;9.372;2024-01-30T06:07:29;10.400000000000002;;;4.56923076923077;;
15557;SDS011;7880;50.110;9.372;2024-01-30T06:12:29;8.761538461538462;;;5.200000000000001;;
15557;SDS011;7880;50.110;9.372;2024-01-30T06:17:34;6.599999999999999;;;4.799999999999999;;
15557;SDS011;7880;50.110;9.372;2024-01-30T06:22:38;7.299999999999998;;;4.838461538461538;;
15557;SDS011;7880;50.110;9.372;2024-01-30T06:27:42;14.223076923076919;;;5.9;;
15557;SDS011;7880;50.110;9.372;2024-01-30T06:32:47;7.823076923076924;;;5.161538461538461;;
15557;SDS011;7880;50.110;9.372;2024-01-30T06:38:01;11.184615384615382;;;5.5;;
15557;SDS011;7880;50.110;9.372;2024-01-30T06:42:54;14.430769230769233;;;6.061538461538462;;
15557;SDS011;7880;50.110;9.372;2024-01-30T06:47:59;10.776923076923081;;;6.338461538461539;;
15557;SDS011;7880;50.110;9.372;2024-01-30T06:53:06;16.784615384615385;;;8.900000000000002;;
15557;SDS011;7880;50.110;9.372;2024-01-30T06:58:08;12.607692307692306;;;8.153846153846157;;
15557;SDS011;7880;50.110;9.372;2024-01-30T07:03:12;16.023076923076925;;;8.200000000000001;;
15557;SDS011;7880;50.110;9.372;2024-01-30T07:08:17;13.099999999999996;;;7.700000000000002;;
15557;SDS011;7880;50.110;9.372;2024-01-30T07:13:21;11.746153846153847;;;6.823076923076924;;
15557;SDS011;7880;50.110;9.372;2024-01-30T07:18:25;9.861538461538462;;;5.638461538461541;;
15557;SDS011;7880;50.110;9.372;2024-01-30T07:23:42;16.630769230769232;;;8.900000000000002;;
15557;SDS011;7880;50.110;9.372;2024-01-30T07:28:35;16.630769230769232;;;8.900000000000002;;
15557;SDS011;7880;50.110;9.372;2024-01-30T07:33:44;8.738461538461538;;;6.1;;
15557;SDS011;7880;50.110;9.372;2024-01-30T07:38:43;8.823076923076924;;;5.6;;
15557;SDS011;7880;50.110;9.372;2024-01-30T07:43:57;10.43846153846154;;;6.438461538461538;;
15557;SDS011;7880;50.110;9.372;2024-01-30T07:48:51;12.361538461538466;;;6.361538461538459;;
15557;SDS011;7880;50.110;9.372;2024-01-30T07:54:02;8.261538461538462;;;5.938461538461538;;
15557;SDS011;7880;50.110;9.372;2024-01-30T07:58:59;13.030769230769227;;;7.815384615384616;;
15557;SDS011;7880;50.110;9.372;2024-01-30T08:04:05;13.476923076923075;;;8.0;;
15557;SDS011;7880;50.110;9.372;2024-01-30T08:08:54;14.492307692307694;;;9.046153846153846;;
15557;SDS011;7880;50.110;9.372;2024-01-30T08:13:56;10.761538461538457;;;6.738461538461538;;
15557;SDS011;7880;50.110;9.372;2024-01-30T08:19:12;12.323076923076922;;;6.338461538461539;;
15557;SDS011;7880;50.110;9.372;2024-01-30T08:24:08;11.3;;;6.299999999999998;;
15557;SDS011;7880;50.110;9.372;2024-01-30T08:29:14;13.053846153846159;;;7.5;;
15557;SDS011;7880;50.110;9.372;2024-01-30T08:34:24;10.053846153846155;;;6.83846153846154;;
15557;SDS011;7880;50.110;9.372;2024-01-30T08:39:30;7.823076923076924;;;6.261538461538462;;
15557;SDS011;7880;50.110;9.372;2024-01-30T08:44:24;10.176923076923078;;;6.138461538461541;;
15557;SDS011;7880;50.110;9.372;2024-01-30T08:49:27;10.099999999999998;;;6.261538461538462;;
15557;SDS011;7880;50.110;9.372;2024-01-30T08:54:37;9.36923076923077;;;6.238461538461538;;
15557;SDS011;7880;50.110;9.372;2024-01-30T08:59:46;12.384615384615383;;;6.200000000000002;;
15557;SDS011;7880;50.110;9.372;2024-01-30T09:04:43;8.799999999999999;;;5.476923076923075;;
15557;SDS011;7880;50.110;9.372;2024-01-30T09:09:47;17.38461538461538;;;8.576923076923078;;
15557;SDS011;7880;50.110;9.372;2024-01-30T09:15:00;15.453846153846147;;;9.038461538461537;;
15557;SDS011;7880;50.110;9.372;2024-01-30T09:19:58;19.830769230769228;;;8.36153846153846;;
15557;SDS011;7880;50.110;9.372;2024-01-30T09:25:00;12.76153846153846;;;8.37692307692308;;
15557;SDS011;7880;50.110;9.372;2024-01-30T09:30:06;17.54615384615385;;;8.0;;
15557;SDS011;7880;50.110;9.372;2024-01-30T09:35:13;11.0;;;7.900000000000001;;
15557;SDS011;7880;50.110;9.372;2024-01-30T09:40:19;11.47692307692308;;;8.0;;
15557;SDS011;7880;50.110;9.372;2024-01-30T09:45:23;15.56153846153846;;;9.099999999999998;;
15557;SDS011;7880;50.110;9.372;2024-01-30T09:50:27;13.861538461538467;;;8.400000000000002;;
15557;SDS011;7880;50.110;9.372;2024-01-30T09:55:32;10.292307692307691;;;7.215384615384618;;
15557;SDS011;7880;50.110;9.372;2024-01-30T10:00:33;11.599999999999998;;;7.538461538461538;;
15557;SDS011;7880;50.110;9.372;2024-01-30T10:05:38;15.82307692307692;;;7.83846153846154;;
15557;SDS011;7880;50.110;9.372;2024-01-30T10:10:49;11.276923076923081;;;6.0;;
15557;SDS011;7880;50.110;9.372;2024-01-30T10:15:47;13.284615384615384;;;7.0;;
15557;SDS011;7880;50.110;9.372;2024-01-30T10:20:51;9.700000000000001;;;6.038461538461537;;
15557;SDS011;7880;50.110;9.372;2024-01-30T10:25:58;9.861538461538462;;;6.599999999999999;;
15557;SDS011;7880;50.110;9.372;2024-01-30T10:31:00;12.415384615384612;;;6.338461538461539;;
15557;SDS011;7880;50.110;9.372;2024-01-30T10:36:13;9.238461538461541;;;6.038461538461537;;
15557;SDS011;7880;50.110;9.372;2024-01-30T10:41:18;9.676923076923076;;;6.038461538461537;;
15557;SDS011;7880;50.110;9.372;2024-01-30T10:46:17;11.384615384615383;;;5.961538461538463;;
15557;SDS011;7880;50.110;9.372;2024-01-30T10:51:19;8.823076923076924;;;6.1;;
15557;SDS011;7880;50.110;9.372;2024-01-30T10:56:23;8.77692307692308;;;6.0;;
15557;SDS011;7880;50.110;9.372;2024-01-30T11:01:28;11.423076923076925;;;6.799999999999998;;
15557;SDS011;7880;50.110;9.372;2024-01-30T11:06:40;10.484615384615388;;;6.200000000000002;;
15557;SDS011;7880;50.110;9.372;2024-01-30T11:11:47;10.323076923076922;;;6.076923076923078;;
15557;SDS011;7880;50.110;9.372;2024-01-30T11:16:43;7.776923076923078;;;5.23846153846154;;
15557;SDS011;7880;50.110;9.372;2024-01-30T11:21:49;10.292307692307693;;;6.0;;
15557;SDS011;7880;50.110;9.372;2024-01-30T11:26:55;9.784615384615382;;;6.030769230769229;;
15557;SDS011;7880;50.110;9.372;2024-01-30T11:31:55;8.669230769230769;;;6.169230769230769;;
15557;SDS011;7880;50.110;9.372;2024-01-30T11:37:03;9.900000000000002;;;5.53076923076923;;
15557;SDS011;7880;50.110;9.372;2024-01-30T11:42:06;9.630769230769229;;;4.799999999999999;;
15557;SDS011;7880;50.110;9.372;2024-01-30T11:47:13;10.969230769230771;;;6.046153846153843;;
15557;SDS011;7880;50.110;9.372;2024-01-30T11:52:17;7.361538461538459;;;5.761538461538462;;
15557;SDS011;7880;50.110;9.372;2024-01-30T11:57:19;9.607692307692309;;;5.299999999999999;;
15557;SDS011;7880;50.110;9.372;2024-01-30T12:02:24;10.569230769230769;;;5.961538461538459;;
15557;SDS011;7880;50.110;9.372;2024-01-30T12:07:28;7.592307692307691;;;5.761538461538463;;
15557;SDS011;7880;50.110;9.372;2024-01-30T12:12:33;11.807692307692308;;;5.799999999999998;;
15557;SDS011;7880;50.110;9.372;2024-01-30T12:17:37;7.884615384615385;;;5.3307692307692305;;
15557;SDS011;7880;50.110;9.372;2024-01-30T12:22:43;8.938461538461539;;;5.5;;
15557;SDS011;7880;50.110;9.372;2024-01-30T12:27:47;6.1;;;4.5;;
15557;SDS011;7880;50.110;9.372;2024-01-30T12:32:52;5.538461538461541;;;4.1000000000000005;;
15557;SDS011;7880;50.110;9.372;2024-01-30T12:37:59;5.46923076923077;;;3.399999999999999;;
15557;SDS011;7880;50.110;9.372;2024-01-30T12:43:00;7.299999999999998;;;4.799999999999999;;
15557;SDS011;7880;50.110;9.372;2024-01-30T12:48:05;10.10769230769231;;;5.1000000000000005;;
15557;SDS011;7880;50.110;9.372;2024-01-30T12:53:09;4.523076923076922;;;4.061538461538462;;
15557;SDS011;7880;50.110;9.372;2024-01-30T12:58:14;7.43076923076923;;;3.530769230769231;;
15557;SDS011;7880;50.110;9.372;2024-01-30T13:03:21;7.8230769230769255;;;3.899999999999999;;
15557;SDS011;7880;50.110;9.372;2024-01-30T13:08:22;8.923076923076923;;;4.23076923076923;;
15557;SDS011;7880;50.110;9.372;2024-01-30T13:13:01;10.546153846153848;;;4.961538461538462;;
15557;SDS011;7880;50.110;9.372;2024-01-30T13:18:06;5.038461538461539;;;3.7692307692307705;;
15557;SDS011;7880;50.110;9.372;2024-01-30T13:23:10;7.969230769230771;;;4.5;;
15557;SDS011;7880;50.110;9.372;2024-01-30T13:28:14;6.323076923076922;;;4.061538461538462;;
15557;SDS011;7880;50.110;9.372;2024-01-30T13:33:24;7.799999999999998;;;3.8307692307692305;;
15557;SDS011;7880;50.110;9.372;2024-01-30T13:38:24;7.099999999999999;;;6.130769230769232;;
15557;SDS011;7880;50.110;9.372;2024-01-30T13:43:29;11.038461538461544;;;9.299999999999999;;
15557;SDS011;7880;50.110;9.372;2024-01-30T13:48:34;5.93076923076923;;;4.6000000000000005;;
15557;SDS011;7880;50.110;9.372;2024-01-30T13:53:41;7.26153846153846;;;5.03076923076923;;
15557;SDS011;7880;50.110;9.372;2024-01-30T13:58:44;8.692307692307692;;;4.1000000000000005;;
15557;SDS011;7880;50.110;9.372;2024-01-30T14:03:49;7.330769230769231;;;5.03076923076923;;
15557;SDS011;7880;50.110;9.372;2024-01-30T14:08:58;7.538461538461541;;;3.7999999999999994;;
15557;SDS011;7880;50.110;9.372;2024-01-30T14:13:59;5.869230769230768;;;3.399999999999999;;
15557;SDS011;7880;50.110;9.372;2024-01-30T14:19:03;6.792307692307693;;;3.7307692307692295;;
15557;SDS011;7880;50.110;9.372;2024-01-30T14:24:07;6.715384615384616;;;3.7307692307692295;;
15557;SDS011;7880;50.110;9.372;2024-01-30T14:29:11;5.799999999999998;;;3.530769230769231;;
15557;SDS011;7880;50.110;9.372;2024-01-30T14:34:18;5.9923076923076914;;;3.761538461538461;;
15557;SDS011;7880;50.110;9.372;2024-01-30T14:39:23;9.507692307692308;;;4.3999999999999995;;
15557;SDS011;7880;50.110;9.372;2024-01-30T14:44:25;8.738461538461538;;;6.0;;
15557;SDS011;7880;50.110;9.372;2024-01-30T14:49:28;7.469230769230771;;;4.299999999999999;;
15557;SDS011;7880;50.110;9.372;2024-01-30T14:54:34;7.676923076923078;;;4.6692307692307695;;
15557;SDS011;7880;50.110;9.372;2024-01-30T14:59:38;7.369230769230768;;;5.969230769230771;;
15557;SDS011;7880;50.110;9.372;2024-01-30T15:04:42;12.684615384615382;;;7.830769230769231;;
15557;SDS011;7880;50.110;9.372;2024-01-30T15:09:51;9.961538461538462;;;5.1000000000000005;;
15557;SDS011;7880;50.110;9.372;2024-01-30T15:14:51;11.376923076923076;;;5.4;;
15557;SDS011;7880;50.110;9.372;2024-01-30T15:19:55;7.907692307692309;;;5.738461538461537;;
15557;SDS011;7880;50.110;9.372;2024-01-30T15:24:58;6.938461538461538;;;4.700000000000001;;
15557;SDS011;7880;50.110;9.372;2024-01-30T15:30:01;8.700000000000001;;;5.43076923076923;;
15557;SDS011;7880;50.110;9.372;2024-01-30T15:35:08;7.599999999999999;;;5.1000000000000005;;
15557;SDS011;7880;50.110;9.372;2024-01-30T15:40:08;6.338461538461538;;;4.769230769230769;;
15557;SDS011;7880;50.110;9.372;2024-01-30T15:45:10;12.907692307692304;;;9.238461538461538;;
15557;SDS011;7880;50.110;9.372;2024-01-30T15:50:13;8.099999999999998;;;5.6692307692307695;;
15557;SDS011;7880;50.110;9.372;2024-01-30T15:55:15;9.038461538461538;;;6.4;;
15557;SDS011;7880;50.110;9.372;2024-01-30T16:00:19;10.730769230769235;;;7.530769230769229;;
15557;SDS011;7880;50.110;9.372;2024-01-30T16:05:23;17.638461538461545;;;13.646153846153842;;
15557;SDS011;7880;50.110;9.372;2024-01-30T16:10:27;13.369230769230775;;;6.93076923076923;;
15557;SDS011;7880;50.110;9.372;2024-01-30T16:15:31;7.700000000000002;;;4.8999999999999995;;
15557;SDS011;7880;50.110;9.372;2024-01-30T16:20:35;5.9923076923076914;;;4.430769230769231;;
15557;SDS011;7880;50.110;9.372;2024-01-30T16:25:40;12.7;;;6.130769230769232;;
15557;SDS011;7880;50.110;9.372;2024-01-30T16:30:42;13.10769230769231;;;9.769230769230768;;
15557;SDS011;7880;50.110;9.372;2024-01-30T16:35:48;7.438461538461538;;;5.799999999999998;;
15557;SDS011;7880;50.110;9.372;2024-01-30T16:40:52;9.0;;;6.269230769230769;;
15557;SDS011;7880;50.110;9.372;2024-01-30T16:45:52;7.330769230769231;;;4.8999999999999995;;
15557;SDS011;7880;50.110;9.372;2024-01-30T16:50:55;10.246153846153847;;;6.261538461538464;;
15557;SDS011;7880;50.110;9.372;2024-01-30T16:56:01;10.400000000000002;;;6.26153846153846;;
15557;SDS011;7880;50.110;9.372;2024-01-30T17:01:02;12.900000000000004;;;7.230769230769231;;
15557;SDS011;7880;50.110;9.372;2024-01-30T17:06:10;14.192307692307692;;;7.030769230769229;;
15557;SDS011;7880;50.110;9.372;2024-01-30T17:11:16;14.530769230769229;;;8.330769230769231;;
15557;SDS011;7880;50.110;9.372;2024-01-30T17:16:17;13.369230769230775;;;7.230769230769231;;
15557;SDS011;7880;50.110;9.372;2024-01-30T17:21:22;14.300000000000002;;;7.700000000000002;;
15557;SDS011;7880;50.110;9.372;2024-01-30T17:26:30;11.36153846153846;;;6.93076923076923;;
15557;SDS011;7880;50.110;9.372;2024-01-30T17:31:30;11.007692307692308;;;6.969230769230771;;
15557;SDS011;7880;50.110;9.372;2024-01-30T17:36:33;11.3;;;7.476923076923075;;
15557;SDS011;7880;50.110;9.372;2024-01-30T17:41:38;12.269230769230765;;;7.599999999999999;;
15557;SDS011;7880;50.110;9.372;2024-01-30T17:46:49;8.86923076923077;;;6.700000000000002;;
15557;SDS011;7880;50.110;9.372;2024-01-30T17:51:46;10.769230769230765;;;7.830769230769231;;
15557;SDS011;7880;50.110;9.372;2024-01-30T17:56:49;12.5;;;6.93076923076923;;
15557;SDS011;7880;50.110;9.372;2024-01-30T18:01:55;12.576923076923082;;;7.169230769230769;;
15557;SDS011;7880;50.110;9.372;2024-01-30T18:06:55;12.10769230769231;;;5.700000000000002;;
15557;SDS011;7880;50.110;9.372;2024-01-30T18:12:04;13.246153846153849;;;6.4;;
15557;SDS011;7880;50.110;9.372;2024-01-30T18:17:12;9.069230769230767;;;6.50769230769231;;
15557;SDS011;7880;50.110;9.372;2024-01-30T18:22:17;14.030769230769229;;;7.961538461538459;;
15557;SDS011;7880;50.110;9.372;2024-01-30T18:27:21;23.76923076923077;;;12.069230769230767;;
15557;SDS011;7880;50.110;9.372;2024-01-30T18:32:23;12.115384615384615;;;6.900000000000001;;
15557;SDS011;7880;50.110;9.372;2024-01-30T18:37:27;11.5;;;6.061538461538462;;
15557;SDS011;7880;50.110;9.372;2024-01-30T18:42:31;10.5;;;5.730769230769231;;
15557;SDS011;7880;50.110;9.372;2024-01-30T18:47:33;10.746153846153849;;;6.838461538461539;;
15557;SDS011;7880;50.110;9.372;2024-01-30T18:52:38;12.3;;;6.130769230769232;;
15557;SDS011;7880;50.110;9.372;2024-01-30T18:57:40;11.66923076923077;;;5.630769230769232;;
15557;SDS011;7880;50.110;9.372;2024-01-30T19:02:47;14.176923076923078;;;6.700000000000002;;
15557;SDS011;7880;50.110;9.372;2024-01-30T19:07:58;12.469230769230771;;;6.86153846153846;;
15557;SDS011;7880;50.110;9.372;2024-01-30T19:12:57;13.50769230769231;;;6.799999999999998;;
15557;SDS011;7880;50.110;9.372;2024-01-30T19:17:56;12.038461538461538;;;7.099999999999999;;
15557;SDS011;7880;50.110;9.372;2024-01-30T19:23:05;14.29230769230769;;;7.299999999999998;;
15557;SDS011;7880;50.110;9.372;2024-01-30T19:28:12;11.876923076923076;;;7.63846153846154;;
15557;SDS011;7880;50.110;9.372;2024-01-30T19:33:13;10.915384615384617;;;7.5;;
15557;SDS011;7880;50.110;9.372;2024-01-30T19:38:16;14.130769230769225;;;7.630769230769232;;
15557;SDS011;7880;50.110;9.372;2024-01-30T19:43:22;14.546153846153844;;;8.092307692307694;;
15557;SDS011;7880;50.110;9.372;2024-01-30T19:48:26;15.27692307692308;;;7.5;;
15557;SDS011;7880;50.110;9.372;2024-01-30T19:53:25;12.930769230769233;;;8.330769230769231;;
15557;SDS011;7880;50.110;9.372;2024-01-30T19:58:28;13.36153846153846;;;7.661538461538461;;
15557;SDS011;7880;50.110;9.372;2024-01-30T20:03:33;12.33076923076923;;;8.430769230769231;;
15557;SDS011;7880;50.110;9.372;2024-01-30T20:08:38;18.615384615384617;;;9.099999999999998;;
15557;SDS011;7880;50.110;9.372;2024-01-30T20:13:41;13.5;;;8.5;;
15557;SDS011;7880;50.110;9.372;2024-01-30T20:18:54;16.03846153846154;;;8.561538461538461;;
15557;SDS011;7880;50.110;9.372;2024-01-30T20:23:50;20.492307692307694;;;9.038461538461538;;
15557;SDS011;7880;50.110;9.372;2024-01-30T20:28:54;20.984615384615385;;;9.700000000000001;;
15557;SDS011;7880;50.110;9.372;2024-01-30T20:33:58;13.038461538461538;;;8.799999999999999;;
15557;SDS011;7880;50.110;9.372;2024-01-30T20:39:05;21.83846153846154;;;9.430769230769231;;
15557;SDS011;7880;50.110;9.372;2024-01-30T20:44:06;17.13076923076923;;;9.099999999999998;;
15557;SDS011;7880;50.110;9.372;2024-01-30T20:49:09;12.83076923076923;;;8.400000000000002;;
15557;SDS011;7880;50.110;9.372;2024-01-30T20:54:13;12.66923076923077;;;9.200000000000001;;
15557;SDS011;7880;50.110;9.372;2024-01-30T20:59:19;14.569230769230767;;;8.36153846153846;;
15557;SDS011;7880;50.110;9.372;2024-01-30T21:04:19;15.476923076923072;;;8.900000000000002;;
15557;SDS011;7880;50.110;9.372;2024-01-30T21:09:23;19.061538461538458;;;9.292307692307693;;
15557;SDS011;7880;50.110;9.372;2024-01-30T21:14:28;15.730769230769235;;;9.061538461538461;;
15557;SDS011;7880;50.110;9.372;2024-01-30T21:19:32;19.061538461538458;;;10.030769230769229;;
15557;SDS011;7880;50.110;9.372;2024-01-30T21:24:36;13.938461538461542;;;9.200000000000001;;
15557;SDS011;7880;50.110;9.372;2024-01-30T21:29:42;15.39230769230769;;;9.030769230769229;;
15557;SDS011;7880;50.110;9.372;2024-01-30T21:34:50;19.94615384615384;;;10.299999999999999;;
15557;SDS011;7880;50.110;9.372;2024-01-30T21:39:47;24.638461538461534;;;12.661538461538463;;
15557;SDS011;7880;50.110;9.372;2024-01-30T21:44:55;22.792307692307688;;;13.85384615384615;;
15557;SDS011;7880;50.110;9.372;2024-01-30T21:49:58;26.47692307692307;;;13.730769230769235;;
15557;SDS011;7880;50.110;9.372;2024-01-30T21:55:03;20.923076923076923;;;13.561538461538458;;
15557;SDS011;7880;50.110;9.372;2024-01-30T22:00:08;19.47692307692308;;;11.599999999999996;;
15557;SDS011;7880;50.110;9.372;2024-01-30T22:05:10;25.54615384615384;;;14.130769230769225;;
15557;SDS011;7880;50.110;9.372;2024-01-30T22:10:15;23.36923076923077;;;14.153846153846153;;
15557;SDS011;7880;50.110;9.372;2024-01-30T22:15:19;20.700000000000003;;;12.16923076923077;;
15557;SDS011;7880;50.110;9.372;2024-01-30T22:20:25;18.092307692307696;;;12.3;;
15557;SDS011;7880;50.110;9.372;2024-01-30T22:25:25;18.0;;;12.161538461538463;;
15557;SDS011;7880;50.110;9.372;2024-01-30T22:30:29;18.492307692307694;;;12.2;;
15557;SDS011;7880;50.110;9.372;2024-01-30T22:35:33;18.461538461538467;;;12.230769230769235;;